createdAt,value
2018-02-09T00:01:43.180Z,32.30
2018-02-09T00:04:09.624Z,33.28
2018-02-09T00:06:36.129Z,33.15
2018-02-09T00:09:02.644Z,32.85
2018-02-09T00:11:29.292Z,31.02
2018-02-09T00:13:55.726Z,33.08
2018-02-09T00:16:22.988Z,31.42
2018-02-09T00:18:50.464Z,31.67
2018-02-09T00:21:16.972Z,33.13
2018-02-09T00:23:43.459Z,34.90
2018-02-09T00:26:09.920Z,33.80
2018-02-09T00:28:36.431Z,35.55
2018-02-09T00:31:02.893Z,34.92
2018-02-09T00:33:29.340Z,33.17
2018-02-09T00:35:55.816Z,32.88
2018-02-09T00:38:22.344Z,32.67
2018-02-09T00:40:49.672Z,34.08
2018-02-09T00:43:16.180Z,32.65
2018-02-09T00:45:42.732Z,34.50
2018-02-09T00:48:09.249Z,35.97
2018-02-09T00:50:35.712Z,35.95
2018-02-09T00:53:02.129Z,32.88
2018-02-09T00:55:28.613Z,34.08
2018-02-09T00:57:55.152Z,34.17
2018-02-09T01:00:21.632Z,31.85
2018-02-09T01:02:48.865Z,35.08
2018-02-09T01:05:15.345Z,32.50
2018-02-09T01:07:41.867Z,33.53
2018-02-09T01:10:08.382Z,33.22
2018-02-09T01:12:34.856Z,33.15
2018-02-09T01:15:01.295Z,35.65
2018-02-09T01:17:28.554Z,33.13
2018-02-09T01:19:55.016Z,32.55
2018-02-09T01:22:21.476Z,34.55
2018-02-09T01:24:47.948Z,32.97
2018-02-09T01:27:14.772Z,35.60
2018-02-09T01:29:42.739Z,35.13
2018-02-09T01:32:09.200Z,32.72
2018-02-09T01:34:35.635Z,35.65
2018-02-09T01:37:02.827Z,32.45
2018-02-09T01:39:29.348Z,31.85
2018-02-09T01:41:55.827Z,31.55
2018-02-09T01:44:22.347Z,33.83
2018-02-09T01:46:48.832Z,32.88
2018-02-09T01:49:15.346Z,34.83
2018-02-09T01:51:41.772Z,34.22
2018-02-09T01:54:08.276Z,35.22
2018-02-09T01:56:36.578Z,35.28
2018-02-09T02:42:44.639Z,28.87
2018-02-09T02:45:11.116Z,32.38
2018-02-09T02:47:37.576Z,32.10
2018-02-09T02:50:04.091Z,33.83
2018-02-09T02:52:30.644Z,34.05
2018-02-09T02:54:57.183Z,34.13
2018-02-09T02:57:24.436Z,33.22
2018-02-09T02:59:51.686Z,33.17
2018-02-09T03:02:18.260Z,33.30
2018-02-09T03:04:45.538Z,32.05
2018-02-09T03:07:12.035Z,33.13
2018-02-09T03:09:38.464Z,32.15
2018-02-09T03:12:04.941Z,34.22
2018-02-09T03:14:32.416Z,30.67
2018-02-09T03:16:58.901Z,35.08
2018-02-09T03:19:25.381Z,33.00
2018-02-09T03:21:52.076Z,31.67
2018-02-09T03:24:19.336Z,31.90
2018-02-09T03:26:45.857Z,31.67
2018-02-09T03:29:12.313Z,30.48
2018-02-09T03:31:38.787Z,32.55
2018-02-09T03:34:05.312Z,32.08
2018-02-09T03:36:31.764Z,32.33
2018-02-09T03:38:58.220Z,32.83
2018-02-09T03:41:24.796Z,32.63
2018-02-09T03:43:52.020Z,31.92
2018-02-09T03:46:18.483Z,31.83
2018-02-09T03:48:45.076Z,32.55
2018-02-09T03:51:11.465Z,30.62
2018-02-09T03:53:37.907Z,30.55
2018-02-09T03:56:04.384Z,30.52
2018-02-09T03:58:30.946Z,33.83
2018-02-09T04:00:57.351Z,36.65
2018-02-09T04:03:24.630Z,35.03
2018-02-09T04:05:51.055Z,36.15
2018-02-09T04:08:21.396Z,31.42
2018-02-09T04:10:48.007Z,34.25
2018-02-09T04:13:15.228Z,35.78
2018-02-09T04:15:42.503Z,34.70
2018-02-09T04:18:08.935Z,34.47
2018-02-09T04:20:35.423Z,33.95
2018-02-09T04:23:02.872Z,34.22
2018-02-09T04:25:29.287Z,30.42
2018-02-09T04:27:55.770Z,31.65
2018-02-09T04:30:22.352Z,32.53
2018-02-09T04:32:49.573Z,31.70
2018-02-09T04:35:16.064Z,32.85
2018-02-09T04:37:43.312Z,33.60
2018-02-09T04:40:10.590Z,32.30
2018-02-09T04:42:37.808Z,35.38
2018-02-09T04:45:04.284Z,31.70
2018-02-09T04:47:30.788Z,32.50
2018-02-09T04:49:57.276Z,35.17
2018-02-09T04:52:23.809Z,34.38
2018-02-09T04:54:50.252Z,29.87
2018-02-09T04:57:16.726Z,30.65
2018-02-09T04:59:43.276Z,29.37
2018-02-09T05:02:10.540Z,29.70
2018-02-09T05:04:37.805Z,32.58
2018-02-09T05:07:04.346Z,30.77
2018-02-09T05:09:30.804Z,32.03
2018-02-09T05:11:57.321Z,31.77
2018-02-09T05:14:23.781Z,31.77
2018-02-09T05:16:50.256Z,31.98
2018-02-09T05:19:17.500Z,32.20
2018-02-09T05:21:44.055Z,32.25
2018-02-09T05:24:10.588Z,30.88
2018-02-09T05:26:37.068Z,34.95
2018-02-09T05:29:04.304Z,34.40
2018-02-09T05:31:30.764Z,32.22
2018-02-09T05:33:57.293Z,33.20
2018-02-09T05:36:23.756Z,31.95
2018-02-09T05:38:50.191Z,32.30
2018-02-09T05:41:16.687Z,32.58
2018-02-09T05:43:43.948Z,31.70
2018-02-09T05:46:10.477Z,32.60
2018-02-09T05:48:37.716Z,31.27
2018-02-09T05:51:04.269Z,32.13
2018-02-09T05:53:30.723Z,31.87
2018-02-09T05:55:57.215Z,34.22
2018-02-09T05:58:24.424Z,32.30
2018-02-09T06:00:51.722Z,31.50
2018-02-09T06:03:18.285Z,30.25
2018-02-09T06:05:44.823Z,33.65
2018-02-09T06:08:11.368Z,35.80
2018-02-09T06:10:37.924Z,32.05
2018-02-09T06:13:04.353Z,34.40
2018-02-09T06:15:30.789Z,36.22
2018-02-09T06:17:57.269Z,34.78
2018-02-09T06:20:23.820Z,34.28
2018-02-09T06:22:50.359Z,33.55
2018-02-09T06:25:16.859Z,31.98
2018-02-09T06:27:44.037Z,32.80
2018-02-09T06:30:10.532Z,31.90
2018-02-09T06:32:37.020Z,32.45
2018-02-09T06:35:03.550Z,29.67
2018-02-09T06:37:30.069Z,31.00
2018-02-09T06:39:56.606Z,30.12
2018-02-09T06:42:23.039Z,30.95
2018-02-09T06:44:49.531Z,32.80
2018-02-09T06:47:16.072Z,31.20
2018-02-09T06:49:42.576Z,34.92
2018-02-09T06:52:09.011Z,32.03
2018-02-09T06:54:35.464Z,32.70
2018-02-09T06:57:01.913Z,32.47
2018-02-09T06:59:28.380Z,31.58
2018-02-09T07:01:54.808Z,33.97
2018-02-09T07:04:21.260Z,34.35
2018-02-09T07:06:47.705Z,32.60
2018-02-09T07:09:14.163Z,33.08
2018-02-09T07:11:40.607Z,34.75
2018-02-09T07:14:07.048Z,32.88
2018-02-09T07:16:33.509Z,34.25
2018-02-09T07:19:00.846Z,32.30
2018-02-09T07:21:27.355Z,33.28
2018-02-09T07:23:53.782Z,32.15
2018-02-09T07:26:20.179Z,32.88
2018-02-09T07:28:46.718Z,34.40
2018-02-09T07:31:13.904Z,34.67
2018-02-09T07:33:40.292Z,35.20
2018-02-09T07:36:07.110Z,35.47
2018-02-09T07:38:33.507Z,34.92
2018-02-09T07:41:00.027Z,36.70
2018-02-09T07:43:26.387Z,35.42
2018-02-09T07:45:52.824Z,34.90
2018-02-09T07:48:19.227Z,36.53
2018-02-09T07:50:45.651Z,37.47
2018-02-09T07:53:12.820Z,37.38
2018-02-09T07:55:40.010Z,38.00
2018-02-09T07:58:06.399Z,37.55
2018-02-09T08:00:32.813Z,37.35
2018-02-09T08:02:59.227Z,37.63
2018-02-09T08:05:26.420Z,38.63
2018-02-09T08:07:52.808Z,38.40
2018-02-09T08:10:19.228Z,40.22
2018-02-09T08:12:45.707Z,44.75
2018-02-09T08:15:12.092Z,46.65
2018-02-09T08:17:39.252Z,41.60
2018-02-09T08:20:05.809Z,39.75
2018-02-09T08:22:32.268Z,41.35
2018-02-09T08:24:58.737Z,41.33
2018-02-09T08:27:25.135Z,41.90
2018-02-09T08:29:52.251Z,43.08
2018-02-09T08:32:18.649Z,43.85
2018-02-09T08:34:45.053Z,44.45
2018-02-09T08:37:11.447Z,42.55
2018-02-09T08:39:38.611Z,42.13
2018-02-09T08:42:05.040Z,42.90
2018-02-09T08:44:32.223Z,45.08
2018-02-09T08:46:59.380Z,45.60
2018-02-09T08:49:26.566Z,43.87
2018-02-09T08:51:52.940Z,43.60
2018-02-09T08:54:19.368Z,44.95
2018-02-09T08:56:45.753Z,46.22
2018-02-09T08:59:12.159Z,43.70
2018-02-09T09:01:38.526Z,45.95
2018-02-09T09:04:04.956Z,43.65
2018-02-09T09:06:31.349Z,46.25
2018-02-09T09:08:57.801Z,47.83
2018-02-09T09:11:24.416Z,46.33
2018-02-09T09:13:50.831Z,48.25
2018-02-09T09:16:17.275Z,45.53
2018-02-09T09:18:43.724Z,47.95
2018-02-09T09:21:10.115Z,47.55
2018-02-09T09:23:36.528Z,48.67
2018-02-09T09:26:02.973Z,49.70
2018-02-09T09:28:29.391Z,47.35
2018-02-09T09:30:56.528Z,47.45
2018-02-09T09:33:22.981Z,49.35
2018-02-09T09:35:49.368Z,49.60
2018-02-09T09:38:15.791Z,45.88
2018-02-09T09:40:42.940Z,48.22
2018-02-09T09:43:09.328Z,48.67
2018-02-09T09:45:35.789Z,50.30
2018-02-09T09:48:02.158Z,48.15
2018-02-09T09:50:28.584Z,51.25
2018-02-09T09:52:55.167Z,51.10
2018-02-09T09:55:21.590Z,48.83
2018-02-09T09:57:47.999Z,49.17
2018-02-09T10:00:14.470Z,48.85
2018-02-09T10:02:40.890Z,47.50
2018-02-09T10:05:07.314Z,47.92
2018-02-09T10:07:33.838Z,46.37
2018-02-09T10:10:00.254Z,51.78
2018-02-09T10:12:26.667Z,47.15
2018-02-09T10:14:53.803Z,48.28
2018-02-09T10:17:20.224Z,47.80
2018-02-09T10:19:46.693Z,49.88
2018-02-09T10:22:13.113Z,50.58
2018-02-09T10:24:39.531Z,40.97
2018-02-09T10:27:07.380Z,45.95
2018-02-09T10:29:33.790Z,39.83
2018-02-09T10:32:00.200Z,44.55
2018-02-09T10:34:26.627Z,44.10
2018-02-09T10:36:53.775Z,42.97
2018-02-09T10:39:20.222Z,37.00
2018-02-09T10:41:46.680Z,41.13
2018-02-09T10:44:13.087Z,45.20
2018-02-09T10:46:39.492Z,41.25
2018-02-09T10:49:06.655Z,42.00
2018-02-09T10:51:33.072Z,41.15
2018-02-09T10:53:59.490Z,45.63
2018-02-09T10:56:25.871Z,42.65
2018-02-09T10:58:52.324Z,39.45
2018-02-09T11:01:25.588Z,39.53
2018-02-09T11:03:52.041Z,35.80
2018-02-09T11:06:18.439Z,41.92
2018-02-09T11:08:45.619Z,42.62
2018-02-09T11:11:17.095Z,38.47
2018-02-09T11:13:43.532Z,41.10
2018-02-09T11:16:09.952Z,38.33
2018-02-09T11:18:37.127Z,38.85
2018-02-09T11:21:04.306Z,40.58
2018-02-09T11:23:30.808Z,38.88
2018-02-09T11:25:57.208Z,36.00
2018-02-09T11:28:23.627Z,38.22
2018-02-09T11:30:50.895Z,39.72
2018-02-09T12:55:15.155Z,40.47
2018-02-09T12:57:41.532Z,42.47
2018-02-09T13:00:07.951Z,43.23
2018-02-09T13:02:34.321Z,44.33
2018-02-09T13:05:00.718Z,43.63
2018-02-09T13:07:27.150Z,45.70
2018-02-09T13:09:54.324Z,43.20
2018-02-09T13:12:32.851Z,42.17
2018-02-09T13:14:59.242Z,45.97
2018-02-09T13:17:25.759Z,41.57
2018-02-09T13:19:52.135Z,43.50
2018-02-09T13:22:32.256Z,43.03
2018-02-09T13:24:58.727Z,42.23
2018-02-09T13:27:25.121Z,44.43
2018-02-09T13:29:51.522Z,41.03
2018-02-09T13:32:30.247Z,41.83
2018-02-09T13:34:56.649Z,39.43
2018-02-09T13:37:32.085Z,41.20
2018-02-09T13:42:31.586Z,39.60
2018-02-09T13:45:11.377Z,42.17
2018-02-09T13:47:37.893Z,40.00
2018-02-09T13:50:04.987Z,39.50
2018-02-09T13:52:31.360Z,39.77
2018-02-09T13:54:57.776Z,41.77
2018-02-09T13:57:24.170Z,40.57
2018-02-09T13:59:50.552Z,40.70
2018-02-09T14:02:17.639Z,40.27
2018-02-09T14:04:44.010Z,39.57
2018-02-09T14:07:10.387Z,40.57
2018-02-09T14:09:37.813Z,38.10
2018-02-09T14:12:04.204Z,40.20
2018-02-09T14:14:31.320Z,37.90
2018-02-09T14:16:57.706Z,36.80
2018-02-09T14:19:24.827Z,40.80
2018-02-09T14:21:51.260Z,35.70
2018-02-09T14:24:17.700Z,36.63
2018-02-09T14:26:44.060Z,39.43
2018-02-09T14:29:10.492Z,38.90
2018-02-09T14:31:36.906Z,35.00
2018-02-09T14:34:04.088Z,38.83
2018-02-09T14:36:30.501Z,37.60
2018-02-09T14:38:56.911Z,35.30
2018-02-09T14:41:23.289Z,37.43
2018-02-09T14:43:50.725Z,35.83
2018-02-09T14:46:17.103Z,34.17
2018-02-09T14:48:44.265Z,37.13
2018-02-09T14:51:10.676Z,37.40
2018-02-09T14:53:37.072Z,39.07
2018-02-09T14:56:04.213Z,36.07
2018-02-09T14:58:30.624Z,41.37
2018-02-09T15:00:56.974Z,36.27
2018-02-09T15:03:23.405Z,35.80
2018-02-09T15:05:49.811Z,38.43
2018-02-09T15:08:16.204Z,35.43
2018-02-09T15:10:42.579Z,36.60
2018-02-09T15:13:09.028Z,34.73
2018-02-09T15:15:35.412Z,35.80
2018-02-09T15:18:02.580Z,36.30
2018-02-09T15:20:29.706Z,35.70
2018-02-09T15:22:56.834Z,36.60
2018-02-09T15:25:23.259Z,35.80
2018-02-09T15:27:50.369Z,36.13
2018-02-09T15:30:16.785Z,37.70
2018-02-09T15:32:43.200Z,40.23
2018-02-09T15:35:10.365Z,36.87
2018-02-09T15:37:36.770Z,37.10
2018-02-09T15:40:03.234Z,35.43
2018-02-09T15:42:29.624Z,36.23
2018-02-09T15:44:56.785Z,37.20
2018-02-09T15:47:23.920Z,34.53
2018-02-09T15:49:50.344Z,35.90
2018-02-09T15:52:16.736Z,38.10
2018-02-09T15:54:43.927Z,37.07
2018-02-09T15:57:10.337Z,36.27
2018-02-09T15:59:36.830Z,36.83
2018-02-09T16:02:03.203Z,35.67
2018-02-09T16:04:29.771Z,37.13
2018-02-09T16:06:56.931Z,36.20
2018-02-09T16:09:23.360Z,37.47
2018-02-09T16:11:49.754Z,32.93
2018-02-09T16:14:16.922Z,34.30
2018-02-09T16:16:44.048Z,36.30
2018-02-09T16:19:10.441Z,36.08
2018-02-09T16:21:36.868Z,36.60
2018-02-09T16:24:03.294Z,35.03
2018-02-09T16:26:29.755Z,34.90
2018-02-09T16:28:56.176Z,34.42
2018-02-09T16:31:22.570Z,35.88
2018-02-09T16:33:48.973Z,36.05
2018-02-09T16:36:15.374Z,36.15
2018-02-09T16:38:41.794Z,36.40
2018-02-09T16:41:08.232Z,40.12
2018-02-09T16:43:35.406Z,38.20
2018-02-09T16:46:02.547Z,43.53
2018-02-09T16:48:28.940Z,53.25
2018-02-09T16:50:55.370Z,39.73
2018-02-09T16:53:21.810Z,36.70
2018-02-09T16:55:48.965Z,37.92
2018-02-09T16:58:16.110Z,34.22
2018-02-09T17:00:42.540Z,35.72
2018-02-09T17:03:08.988Z,36.13
2018-02-09T17:05:35.412Z,35.92
2018-02-09T17:08:01.823Z,34.05
2018-02-09T17:10:28.948Z,37.22
2018-02-09T17:12:55.402Z,33.00
2018-02-09T17:15:22.608Z,33.05
2018-02-09T17:17:49.138Z,35.63
2018-02-09T17:20:16.310Z,34.55
2018-02-09T17:22:43.506Z,33.92
2018-02-09T17:25:09.999Z,36.25
2018-02-09T17:27:36.476Z,36.60
2018-02-09T17:30:03.839Z,38.78
2018-02-09T17:32:30.731Z,36.88
2018-02-09T17:34:57.138Z,37.05
2018-02-09T17:37:24.273Z,37.72
2018-02-09T17:39:50.691Z,35.17
2018-02-09T17:42:17.084Z,34.22
2018-02-09T17:44:43.514Z,34.80
2018-02-09T17:47:09.953Z,33.85
2018-02-09T17:49:36.379Z,34.67
2018-02-09T17:52:02.771Z,36.15
2018-02-09T17:54:29.187Z,37.13
2018-02-09T17:56:56.345Z,35.30
2018-02-09T17:59:22.745Z,38.50
2018-02-09T18:01:49.902Z,39.38
2018-02-09T18:04:16.552Z,38.22
2018-02-09T18:06:43.678Z,40.30
2018-02-09T18:09:10.079Z,37.85
2018-02-09T18:11:36.600Z,37.60
2018-02-09T18:14:03.007Z,37.22
2018-02-09T18:16:29.468Z,37.60
2018-02-09T19:30:27.242Z,35.67
2018-02-09T19:32:53.722Z,42.22
2018-02-09T19:35:21.991Z,41.80
2018-02-09T19:37:48.420Z,44.05
2018-02-09T19:40:14.928Z,41.80
2018-02-09T19:42:42.401Z,43.42
2018-02-09T19:45:09.758Z,43.33
2018-02-09T19:47:36.928Z,44.00
2018-02-09T19:50:04.107Z,47.78
2018-02-09T19:52:30.688Z,50.72
2018-02-09T19:54:57.148Z,44.67
2018-02-09T19:57:23.603Z,46.37
2018-02-09T19:59:50.064Z,43.90
2018-02-09T20:02:16.536Z,44.60
2018-02-09T20:04:43.708Z,46.30
2018-02-09T20:07:10.170Z,44.72
2018-02-09T20:09:36.647Z,42.42
2018-02-09T20:12:03.118Z,44.70
2018-02-09T20:14:29.589Z,42.83
2018-02-09T20:16:56.070Z,43.92
2018-02-09T20:19:22.559Z,45.75
2018-02-09T20:21:48.988Z,44.90
2018-02-09T20:24:15.444Z,42.38
2018-02-09T20:26:41.937Z,41.10
2018-02-09T20:29:09.488Z,41.45
2018-02-09T20:31:36.686Z,41.75
2018-02-09T20:34:03.088Z,40.22
2018-02-09T20:36:29.556Z,39.17
2018-02-09T20:38:56.800Z,39.13
2018-02-09T20:41:23.292Z,36.75
2018-02-09T20:43:49.909Z,38.13
2018-02-09T20:46:16.369Z,38.83
2018-02-09T20:48:43.535Z,38.25
2018-02-09T20:51:10.757Z,39.25
2018-02-09T20:53:38.462Z,38.22
2018-02-09T20:56:04.908Z,40.35
2018-02-09T20:58:31.376Z,39.97
2018-02-09T21:00:58.204Z,40.28
2018-02-09T21:03:24.707Z,40.15
2018-02-09T21:05:51.139Z,41.20
2018-02-09T21:08:17.623Z,38.78
2018-02-09T21:10:44.470Z,41.60
2018-02-09T21:13:11.494Z,38.58
2018-02-09T21:15:37.984Z,39.47
2018-02-09T21:18:04.390Z,38.95
2018-02-09T21:20:31.709Z,40.85
2018-02-09T21:22:58.240Z,37.63
2018-02-09T21:25:24.674Z,37.90
2018-02-09T21:27:51.138Z,36.88
2018-02-09T21:30:17.578Z,40.12
2018-02-09T21:32:44.056Z,41.00
2018-02-09T21:35:10.535Z,40.88
2018-02-09T21:37:37.761Z,39.45
2018-02-09T21:40:04.249Z,40.53
2018-02-09T21:42:31.823Z,41.63
2018-02-09T21:44:58.270Z,42.28
2018-02-09T21:47:24.732Z,43.53
2018-02-09T21:49:51.876Z,48.40
2018-02-09T21:52:19.115Z,42.75
2018-02-09T21:54:45.623Z,44.08
2018-02-09T21:57:12.086Z,37.97
2018-02-09T21:59:38.533Z,40.63
2018-02-09T22:02:04.957Z,43.25
2018-02-09T22:04:31.511Z,43.03
2018-02-09T22:06:58.022Z,39.35
2018-02-09T22:09:24.444Z,38.17
2018-02-09T22:11:50.911Z,42.08
2018-02-09T22:14:17.388Z,39.30
2018-02-09T22:16:44.575Z,44.30
2018-02-09T22:19:11.016Z,41.28
2018-02-09T22:21:37.467Z,43.80
2018-02-09T22:24:04.640Z,39.05
2018-02-09T22:26:31.137Z,39.72
2018-02-09T22:28:57.584Z,39.03
2018-02-09T22:31:24.802Z,39.50
2018-02-09T22:33:51.239Z,38.13
2018-02-09T22:36:18.692Z,40.05
2018-02-09T22:38:45.839Z,40.05
2018-02-09T22:41:12.316Z,40.88
2018-02-09T22:43:38.797Z,40.95
2018-02-09T22:46:06.033Z,36.30
2018-02-09T22:48:32.540Z,36.60
2018-02-09T22:50:59.021Z,36.80
2018-02-09T22:53:25.488Z,42.33
2018-02-09T23:39:32.015Z,33.60
2018-02-09T23:41:58.465Z,38.63
2018-02-09T23:44:25.004Z,37.92
2018-02-09T23:46:51.468Z,38.75
2018-02-09T23:49:17.954Z,38.03
2018-02-09T23:51:44.484Z,37.92
2018-02-09T23:54:10.964Z,36.88
2018-02-09T23:56:38.192Z,38.28
2018-02-09T23:59:04.693Z,37.28
